createdAt,value
2022-11-29T00:01:06.715Z,36.50
2022-11-29T00:03:33.798Z,36.28
2022-11-29T00:06:07.401Z,36.88
2022-11-29T00:08:34.194Z,38.30
2022-11-29T00:11:09.050Z,42.10
2022-11-29T00:13:35.930Z,33.43
2022-11-29T00:16:14.773Z,33.53
2022-11-29T00:18:41.435Z,33.30
2022-11-29T00:21:08.857Z,33.55
2022-11-29T00:23:35.880Z,34.40
2022-11-29T00:26:07.082Z,35.77
2022-11-29T00:28:34.583Z,38.67
2022-11-29T00:31:01.684Z,35.97
2022-11-29T00:33:29.128Z,29.60
2022-11-29T00:35:55.922Z,38.05
2022-11-29T00:38:22.605Z,26.13
2022-11-29T00:40:52.874Z,33.30
2022-11-29T00:43:19.561Z,40.35
2022-11-29T00:45:46.295Z,34.95
2022-11-29T00:48:12.950Z,37.63
2022-11-29T00:50:39.635Z,33.43
2022-11-29T00:53:06.319Z,36.20
2022-11-29T00:55:32.985Z,36.17
2022-11-29T00:57:59.649Z,29.73
2022-11-29T01:00:26.407Z,30.98
2022-11-29T01:02:53.128Z,41.73
2022-11-29T01:05:20.203Z,41.13
2022-11-29T01:07:47.010Z,33.55
2022-11-29T01:10:13.738Z,31.38
2022-11-29T01:12:40.654Z,34.38
2022-11-29T01:15:07.967Z,30.93
2022-11-29T01:17:35.647Z,33.20
2022-11-29T01:20:02.385Z,32.42
2022-11-29T01:22:29.112Z,30.13
2022-11-29T01:24:55.777Z,33.63
2022-11-29T01:27:22.650Z,39.57
2022-11-29T01:29:49.467Z,33.92
2022-11-29T01:32:16.161Z,36.53
2022-11-29T01:34:43.128Z,32.22
2022-11-29T01:37:10.051Z,33.08
2022-11-29T01:39:37.221Z,28.43
2022-11-29T01:42:04.279Z,25.92
2022-11-29T01:44:30.879Z,33.42
2022-11-29T01:46:57.858Z,29.00
2022-11-29T01:49:28.429Z,30.60
2022-11-29T01:52:06.730Z,29.50
2022-11-29T01:54:36.469Z,33.08
2022-11-29T01:57:04.793Z,25.20
2022-11-29T01:59:31.717Z,26.50
2022-11-29T02:02:03.182Z,29.02
2022-11-29T02:04:34.018Z,24.27
2022-11-29T02:07:00.835Z,31.70
2022-11-29T02:09:27.683Z,22.60
2022-11-29T02:12:19.981Z,23.75
2022-11-29T02:15:24.906Z,21.45
2022-11-29T02:18:08.511Z,22.57
2022-11-29T02:21:03.563Z,24.50
2022-11-29T02:23:57.628Z,24.25
2022-11-29T02:26:49.920Z,19.23
2022-11-29T02:29:54.230Z,23.25
2022-11-29T02:32:38.702Z,23.37
2022-11-29T02:35:27.290Z,23.23
2022-11-29T02:38:18.754Z,26.27
2022-11-29T02:40:50.093Z,30.08
2022-11-29T02:43:31.017Z,26.98
2022-11-29T02:46:39.206Z,27.23
2022-11-29T02:49:30.895Z,22.90
2022-11-29T02:52:03.298Z,21.10
2022-11-29T02:54:38.935Z,21.17
2022-11-29T02:57:23.089Z,19.10
2022-11-29T03:00:07.205Z,26.30
2022-11-29T03:03:11.431Z,26.00
2022-11-29T03:05:52.474Z,24.67
2022-11-29T03:08:43.134Z,20.88
2022-11-29T03:11:38.389Z,25.25
2022-11-29T03:14:20.815Z,22.80
2022-11-29T03:16:47.671Z,25.67
2022-11-29T03:19:27.395Z,23.00
2022-11-29T03:22:14.202Z,22.83
2022-11-29T03:25:00.753Z,23.08
2022-11-29T03:27:55.605Z,27.23
2022-11-29T03:30:22.500Z,25.73
2022-11-29T03:33:05.025Z,21.88
2022-11-29T03:35:36.797Z,27.83
2022-11-29T03:38:07.934Z,21.70
2022-11-29T03:40:48.325Z,21.38
2022-11-29T03:43:33.681Z,21.48
2022-11-29T03:46:12.546Z,25.42
2022-11-29T03:48:51.988Z,24.15
2022-11-29T03:51:30.860Z,25.20
2022-11-29T03:54:01.476Z,21.45
2022-11-29T03:56:46.397Z,23.25
2022-11-29T03:59:43.471Z,28.08
2022-11-29T04:02:33.863Z,24.40
2022-11-29T04:05:38.838Z,32.05
2022-11-29T04:08:43.393Z,21.17
2022-11-29T04:11:54.618Z,26.45
2022-11-29T04:14:58.199Z,23.35
2022-11-29T04:17:36.754Z,27.42
2022-11-29T04:20:25.001Z,25.50
2022-11-29T04:23:19.450Z,28.53
2022-11-29T04:26:13.346Z,23.83
2022-11-29T04:28:45.806Z,22.15
2022-11-29T04:31:46.597Z,18.90
2022-11-29T04:34:44.160Z,19.65
2022-11-29T04:37:16.614Z,19.43
2022-11-29T04:39:56.003Z,20.80
2022-11-29T04:42:25.633Z,18.92
2022-11-29T04:45:06.521Z,26.67
2022-11-29T04:48:00.301Z,18.65
2022-11-29T04:50:35.943Z,20.50
2022-11-29T04:53:24.668Z,17.67
2022-11-29T04:56:11.229Z,19.55
2022-11-29T04:58:44.055Z,16.13
2022-11-29T05:01:28.102Z,16.42
2022-11-29T05:04:14.190Z,18.58
2022-11-29T05:06:49.321Z,20.92
2022-11-29T05:09:18.833Z,19.08
2022-11-29T05:12:11.040Z,19.45
2022-11-29T05:14:43.944Z,20.80
2022-11-29T05:17:26.644Z,19.23
2022-11-29T05:20:12.030Z,14.98
2022-11-29T05:22:58.584Z,19.40
2022-11-29T05:25:32.751Z,20.17
2022-11-29T05:28:09.828Z,21.30
2022-11-29T05:31:10.955Z,21.40
2022-11-29T05:33:56.089Z,23.90
2022-11-29T05:36:43.811Z,21.88
2022-11-29T05:39:33.170Z,20.00
2022-11-29T05:42:32.654Z,25.02
2022-11-29T05:45:20.582Z,21.75
2022-11-29T05:48:03.500Z,27.40
2022-11-29T05:50:40.419Z,21.77
2022-11-29T05:53:17.328Z,21.58
2022-11-29T05:55:58.275Z,18.38
2022-11-29T05:59:05.666Z,20.55
2022-11-29T06:01:44.782Z,18.17
2022-11-29T06:04:21.815Z,19.50
2022-11-29T06:06:48.467Z,18.63
2022-11-29T06:09:26.543Z,20.77
2022-11-29T06:11:56.794Z,20.87
2022-11-29T06:14:52.271Z,25.17
2022-11-29T06:17:25.876Z,21.17
2022-11-29T06:20:32.860Z,23.25
2022-11-29T06:23:06.455Z,26.20
2022-11-29T06:26:17.410Z,31.60
2022-11-29T06:29:14.555Z,31.58
2022-11-29T06:31:44.533Z,29.33
2022-11-29T06:34:42.644Z,35.92
2022-11-29T06:37:21.407Z,34.40
2022-11-29T06:39:48.384Z,31.70
2022-11-29T06:42:15.039Z,26.13
2022-11-29T06:44:42.850Z,32.83
2022-11-29T06:47:23.782Z,30.13
2022-11-29T06:49:56.886Z,29.70
2022-11-29T06:53:01.099Z,25.97
2022-11-29T06:55:39.225Z,25.17
2022-11-29T06:58:35.967Z,25.20
2022-11-29T07:01:21.246Z,21.92
2022-11-29T07:04:06.730Z,22.20
2022-11-29T07:06:35.034Z,24.33
2022-11-29T07:09:10.831Z,24.92
2022-11-29T07:11:38.010Z,25.98
2022-11-29T07:14:04.949Z,26.20
2022-11-29T07:17:10.083Z,27.95
2022-11-29T07:20:04.181Z,22.97
2022-11-29T07:23:04.752Z,24.65
2022-11-29T07:25:47.000Z,21.50
2022-11-29T07:28:39.784Z,24.42
2022-11-29T07:31:12.498Z,21.88
2022-11-29T07:33:51.125Z,25.27
2022-11-29T07:36:30.921Z,20.92
2022-11-29T07:39:12.755Z,23.65
2022-11-29T07:42:08.301Z,26.60
2022-11-29T07:44:53.782Z,25.10
2022-11-29T07:47:20.544Z,25.80
2022-11-29T07:49:47.246Z,32.72
2022-11-29T07:52:14.990Z,22.65
2022-11-29T07:54:45.702Z,26.92
2022-11-29T07:57:12.671Z,31.13
2022-11-29T07:59:39.286Z,32.43
2022-11-29T08:02:11.518Z,27.52
2022-11-29T08:04:44.090Z,24.65
2022-11-29T08:07:11.174Z,31.40
2022-11-29T08:09:37.908Z,21.85
2022-11-29T08:12:04.790Z,27.90
2022-11-29T08:14:33.315Z,28.23
2022-11-29T08:17:00.108Z,28.08
2022-11-29T08:19:26.796Z,25.90
2022-11-29T08:21:53.927Z,24.98
2022-11-29T08:24:20.675Z,30.23
2022-11-29T08:26:47.620Z,25.60
2022-11-29T08:29:14.664Z,28.45
2022-11-29T08:31:41.524Z,26.60
2022-11-29T08:34:09.167Z,23.33
2022-11-29T08:36:35.879Z,25.50
2022-11-29T08:39:08.957Z,24.45
2022-11-29T08:41:36.257Z,26.80
2022-11-29T08:44:04.942Z,26.08
2022-11-29T08:46:49.910Z,24.80
2022-11-29T08:49:16.604Z,26.30
2022-11-29T08:51:43.352Z,25.08
2022-11-29T08:54:10.362Z,29.42
2022-11-29T08:59:24.520Z,28.45
2022-11-29T09:01:51.248Z,30.13
2022-11-29T09:04:18.011Z,31.58
2022-11-29T09:06:44.685Z,30.80
2022-11-29T09:09:11.378Z,27.02
2022-11-29T09:11:38.058Z,27.35
2022-11-29T09:14:07.098Z,30.87
2022-11-29T09:16:38.045Z,35.65
2022-11-29T09:19:05.580Z,28.70
2022-11-29T09:21:34.357Z,32.15
2022-11-29T09:24:02.158Z,34.15
2022-11-29T09:26:31.513Z,32.17
2022-11-29T09:29:01.118Z,33.40
2022-11-29T09:31:29.624Z,32.33
2022-11-29T09:33:56.885Z,27.92
2022-11-29T09:36:28.374Z,29.05
2022-11-29T09:38:56.468Z,30.83
2022-11-29T09:41:35.742Z,30.33
2022-11-29T09:44:05.284Z,23.98
2022-11-29T09:46:39.664Z,27.25
2022-11-29T09:49:31.558Z,25.13
2022-11-29T09:52:19.662Z,27.87
2022-11-29T09:55:23.303Z,26.38
2022-11-29T09:57:50.711Z,25.20
2022-11-29T10:00:20.055Z,26.70
2022-11-29T10:02:54.515Z,23.38
2022-11-29T10:05:25.482Z,29.00
2022-11-29T10:07:56.451Z,23.52
2022-11-29T10:10:29.160Z,25.05
2022-11-29T10:13:00.928Z,26.00
2022-11-29T10:15:29.636Z,25.67
2022-11-29T10:18:04.812Z,20.90
2022-11-29T10:20:41.362Z,25.13
2022-11-29T10:23:20.884Z,25.40
2022-11-29T10:25:50.218Z,30.55
2022-11-29T10:28:20.130Z,26.63
2022-11-29T10:30:48.183Z,26.37
2022-11-29T10:33:27.662Z,27.02
2022-11-29T10:36:05.505Z,27.65
2022-11-29T10:38:32.419Z,27.55
2022-11-29T10:41:05.903Z,26.15
2022-11-29T10:43:32.681Z,23.63
2022-11-29T10:46:00.298Z,26.08
2022-11-29T10:48:31.657Z,23.90
2022-11-29T10:50:58.715Z,26.58
2022-11-29T10:53:33.080Z,27.58
2022-11-29T10:56:12.250Z,23.70
2022-11-29T10:58:53.735Z,21.98
2022-11-29T11:01:20.554Z,20.73
2022-11-29T11:03:55.038Z,18.85
2022-11-29T11:06:27.624Z,21.55
2022-11-29T11:09:21.495Z,20.57
2022-11-29T11:11:53.539Z,21.45
2022-11-29T11:14:51.409Z,18.15
2022-11-29T11:17:31.313Z,18.50
2022-11-29T11:20:15.633Z,19.73
2022-11-29T11:22:42.282Z,20.33
2022-11-29T11:25:35.243Z,20.92
2022-11-29T11:28:20.469Z,20.45
2022-11-29T11:30:57.385Z,18.02
2022-11-29T11:33:28.619Z,15.52
2022-11-29T11:36:08.790Z,20.30
2022-11-29T11:38:53.811Z,19.17
2022-11-29T11:41:53.505Z,21.85
2022-11-29T11:44:47.588Z,16.98
2022-11-29T11:47:20.333Z,23.63
2022-11-29T11:50:02.815Z,20.53
2022-11-29T11:52:40.033Z,19.92
2022-11-29T11:55:24.592Z,23.75
2022-11-29T11:58:16.580Z,22.60
2022-11-29T12:03:37.164Z,25.37
2022-11-29T12:06:18.849Z,24.35
2022-11-29T12:08:48.382Z,27.90
2022-11-29T12:11:17.630Z,25.17
2022-11-29T12:13:49.428Z,29.73
2022-11-29T12:16:36.519Z,24.23
2022-11-29T12:19:12.834Z,26.23
2022-11-29T12:21:43.800Z,33.00
2022-11-29T12:24:24.807Z,31.83
2022-11-29T12:26:57.543Z,30.48
2022-11-29T12:29:27.914Z,31.40
2022-11-29T12:32:01.750Z,28.50
2022-11-29T12:34:53.349Z,27.73
2022-11-29T12:37:27.204Z,29.63
2022-11-29T12:40:13.529Z,28.38
2022-11-29T12:42:42.296Z,26.17
2022-11-29T12:45:12.116Z,30.20
2022-11-29T12:47:51.529Z,23.00
2022-11-29T12:50:26.515Z,31.30
2022-11-29T12:52:56.203Z,25.63
2022-11-29T12:55:37.791Z,32.97
2022-11-29T12:58:17.994Z,33.83
2022-11-29T13:01:15.292Z,28.00
2022-11-29T13:03:59.279Z,27.55
2022-11-29T13:06:33.699Z,28.75
2022-11-29T13:09:20.438Z,27.07
2022-11-29T13:11:56.917Z,30.40
2022-11-29T13:14:59.013Z,31.08
2022-11-29T13:17:44.626Z,36.38
2022-11-29T13:20:25.534Z,34.20
2022-11-29T13:23:03.363Z,40.17
2022-11-29T13:25:40.195Z,30.88
2022-11-29T13:28:28.108Z,28.98
2022-11-29T13:31:00.202Z,28.30
2022-11-29T13:33:48.705Z,28.75
2022-11-29T13:36:39.766Z,27.83
2022-11-29T13:39:24.472Z,31.77
2022-11-29T13:42:01.211Z,34.25
2022-11-29T13:44:32.679Z,29.50
2022-11-29T13:47:07.552Z,31.63
2022-11-29T13:49:53.519Z,40.10
2022-11-29T13:52:26.545Z,36.35
2022-11-29T13:55:11.666Z,33.08
2022-11-29T13:58:20.654Z,37.53
2022-11-29T14:00:50.350Z,31.85
2022-11-29T14:03:23.322Z,37.33
2022-11-29T14:06:12.109Z,32.03
2022-11-29T14:09:21.675Z,33.47
2022-11-29T14:11:53.195Z,36.60
2022-11-29T14:14:25.347Z,41.05
2022-11-29T14:16:55.931Z,35.70
2022-11-29T14:19:36.965Z,35.78
2022-11-29T14:22:06.289Z,33.85
2022-11-29T14:24:33.152Z,37.28
2022-11-29T14:27:05.769Z,29.98
2022-11-29T14:29:47.640Z,32.60
2022-11-29T14:32:46.433Z,32.90
2022-11-29T14:35:27.039Z,35.00
2022-11-29T14:38:29.209Z,33.28
2022-11-29T14:40:59.723Z,33.03
2022-11-29T14:43:34.687Z,31.73
2022-11-29T14:46:16.836Z,34.22
2022-11-29T14:48:55.667Z,32.85
2022-11-29T14:51:24.119Z,34.47
2022-11-29T14:54:18.342Z,37.03
2022-11-29T14:56:46.526Z,36.53
2022-11-29T14:59:51.445Z,34.38
2022-11-29T15:02:18.166Z,36.08
2022-11-29T15:04:45.466Z,36.47
2022-11-29T15:07:17.049Z,36.28
2022-11-29T15:09:44.382Z,40.10
2022-11-29T15:12:23.331Z,41.67
2022-11-29T15:15:44.784Z,40.38
2022-11-29T15:18:23.473Z,30.65
2022-11-29T15:21:05.081Z,40.33
2022-11-29T15:23:40.322Z,37.07
2022-11-29T15:26:14.921Z,38.65
2022-11-29T15:28:41.635Z,38.28
2022-11-29T15:31:10.831Z,39.95
2022-11-29T15:33:40.074Z,37.15
2022-11-29T15:36:08.622Z,44.00
2022-11-29T15:38:44.422Z,36.33
2022-11-29T15:41:31.785Z,36.33
2022-11-29T15:44:01.909Z,38.13
2022-11-29T15:46:30.697Z,37.90
2022-11-29T15:49:15.604Z,40.47
2022-11-29T15:51:42.717Z,38.42
2022-11-29T15:54:27.160Z,37.80
2022-11-29T15:56:56.682Z,37.88
2022-11-29T15:59:32.573Z,43.10
2022-11-29T16:02:04.407Z,40.57
2022-11-29T16:04:31.346Z,42.13
2022-11-29T16:06:58.084Z,44.83
2022-11-29T16:09:40.587Z,36.10
2022-11-29T16:12:15.623Z,36.08
2022-11-29T16:14:59.695Z,31.00
2022-11-29T16:17:34.543Z,32.67
2022-11-29T16:20:16.714Z,38.47
2022-11-29T16:22:43.439Z,36.20
2022-11-29T16:25:18.737Z,40.28
2022-11-29T16:27:45.840Z,42.60
2022-11-29T16:30:23.728Z,33.97
2022-11-29T16:32:54.913Z,38.75
2022-11-29T16:35:26.987Z,41.22
2022-11-29T16:37:53.865Z,43.08
2022-11-29T16:40:21.594Z,36.93
2022-11-29T16:43:23.624Z,41.80
2022-11-29T16:46:22.742Z,36.05
2022-11-29T16:48:51.885Z,35.38
2022-11-29T16:51:39.830Z,31.88
2022-11-29T16:54:27.423Z,31.83
2022-11-29T16:56:56.202Z,31.55
2022-11-29T16:59:27.265Z,33.95
2022-11-29T17:01:56.597Z,36.30
2022-11-29T17:04:24.842Z,38.60
2022-11-29T17:06:53.905Z,33.40
2022-11-29T17:09:26.268Z,46.22
2022-11-29T17:11:54.281Z,41.13
2022-11-29T17:14:21.299Z,40.22
2022-11-29T17:16:51.900Z,39.38
2022-11-29T17:19:20.668Z,45.23
2022-11-29T17:21:47.748Z,37.85
2022-11-29T17:24:16.828Z,45.88
2022-11-29T17:26:43.943Z,36.75
2022-11-29T17:29:12.019Z,40.92
2022-11-29T17:31:38.985Z,44.13
2022-11-29T17:34:06.027Z,44.75
2022-11-29T17:36:32.752Z,39.83
2022-11-29T17:38:59.969Z,41.65
2022-11-29T17:41:27.887Z,35.63
2022-11-29T17:43:55.601Z,39.33
2022-11-29T17:46:27.965Z,37.85
2022-11-29T17:48:55.539Z,38.17
2022-11-29T17:51:53.583Z,48.30
2022-11-29T17:54:11.073Z,52.78
2022-11-29T17:56:37.936Z,45.73
2022-11-29T17:59:05.100Z,48.40
2022-11-29T18:01:33.653Z,43.60
2022-11-29T18:04:01.895Z,46.97
2022-11-29T18:06:50.196Z,39.55
2022-11-29T18:09:18.088Z,42.97
2022-11-29T18:11:48.688Z,40.67
2022-11-29T18:14:18.508Z,34.30
2022-11-29T18:16:45.680Z,37.45
2022-11-29T18:19:14.415Z,29.92
2022-11-29T18:21:43.366Z,32.10
2022-11-29T18:24:10.490Z,33.28
2022-11-29T18:26:37.870Z,28.88
2022-11-29T18:29:05.750Z,33.08
2022-11-29T18:31:35.065Z,31.40
2022-11-29T18:34:03.712Z,30.23
2022-11-29T18:36:32.464Z,27.77
2022-11-29T18:39:05.423Z,34.38
2022-11-29T18:41:32.538Z,32.90
2022-11-29T18:44:01.691Z,28.88
2022-11-29T18:46:36.613Z,30.30
2022-11-29T18:49:06.182Z,28.98
2022-11-29T18:51:34.201Z,27.63
2022-11-29T18:54:01.583Z,26.90
2022-11-29T18:56:30.520Z,38.80
2022-11-29T18:59:02.906Z,36.60
2022-11-29T19:01:31.388Z,42.33
2022-11-29T19:04:00.174Z,42.45
2022-11-29T19:06:31.780Z,42.13
2022-11-29T19:09:05.114Z,36.33
2022-11-29T19:11:33.134Z,41.10
2022-11-29T19:14:03.282Z,42.53
2022-11-29T19:16:31.538Z,38.72
2022-11-29T19:18:59.398Z,36.25
2022-11-29T19:21:27.516Z,38.95
2022-11-29T19:23:58.998Z,45.60
2022-11-29T19:26:26.997Z,49.30
2022-11-29T19:28:54.390Z,43.25
2022-11-29T19:31:27.119Z,43.50
2022-11-29T19:33:54.937Z,38.97
2022-11-29T19:36:23.721Z,51.73
2022-11-29T19:38:53.890Z,40.92
2022-11-29T19:41:23.663Z,43.95
2022-11-29T19:43:50.729Z,41.40
2022-11-29T19:46:20.324Z,35.75
2022-11-29T19:48:47.489Z,44.10
2022-11-29T19:51:17.492Z,40.15
2022-11-29T19:53:45.459Z,38.45
2022-11-29T19:56:15.507Z,41.38
2022-11-29T19:58:42.876Z,39.88
2022-11-29T20:01:12.044Z,40.97
2022-11-29T20:03:40.238Z,41.10
2022-11-29T20:06:08.134Z,44.72
2022-11-29T20:08:35.767Z,44.50
2022-11-29T20:11:10.488Z,47.88
2022-11-29T20:13:38.192Z,53.10
2022-11-29T20:16:09.606Z,50.20
2022-11-29T20:18:37.777Z,47.90
2022-11-29T20:21:06.495Z,52.20
2022-11-29T20:23:33.602Z,45.45
2022-11-29T20:26:01.026Z,52.60
2022-11-29T20:28:28.280Z,53.67
2022-11-29T20:30:55.142Z,48.65
2022-11-29T20:33:23.743Z,46.33
2022-11-29T20:36:03.482Z,41.83
2022-11-29T20:38:51.118Z,47.20
2022-11-29T20:41:37.566Z,45.72
2022-11-29T20:44:04.421Z,38.90
2022-11-29T20:46:31.726Z,39.75
2022-11-29T20:49:04.681Z,46.45
2022-11-29T20:52:02.325Z,38.60
2022-11-29T20:54:29.070Z,42.10
2022-11-29T20:56:55.731Z,36.42
2022-11-29T20:59:22.462Z,40.78
2022-11-29T21:01:49.192Z,40.13
2022-11-29T21:04:20.173Z,38.23
2022-11-29T21:06:49.722Z,40.83
2022-11-29T21:09:16.378Z,43.55
2022-11-29T21:11:43.220Z,41.38
2022-11-29T21:14:10.243Z,44.20
2022-11-29T21:16:37.078Z,46.43
2022-11-29T21:19:04.037Z,48.33
2022-11-29T21:21:38.194Z,36.92
2022-11-29T21:24:10.959Z,40.17
2022-11-29T21:26:42.338Z,42.42
2022-11-29T21:29:16.278Z,35.93
2022-11-29T21:31:43.717Z,41.83
2022-11-29T21:34:10.705Z,37.83
2022-11-29T21:36:38.209Z,44.08
2022-11-29T21:39:06.436Z,41.35
2022-11-29T21:41:33.555Z,37.77
2022-11-29T21:44:08.348Z,36.10
2022-11-29T21:46:35.424Z,40.13
2022-11-29T21:49:02.225Z,40.85
2022-11-29T21:51:28.950Z,46.38
2022-11-29T21:53:55.554Z,34.50
2022-11-29T21:56:22.224Z,42.15
2022-11-29T21:58:48.856Z,39.10
2022-11-29T22:01:17.947Z,42.83
2022-11-29T22:03:44.849Z,41.35
2022-11-29T22:06:14.136Z,29.37
2022-11-29T22:08:42.190Z,30.23
2022-11-29T22:11:10.946Z,31.58
2022-11-29T22:13:58.967Z,25.45
2022-11-29T22:16:26.137Z,26.02
2022-11-29T22:18:52.955Z,26.80
2022-11-29T22:21:19.681Z,27.60
2022-11-29T22:23:46.466Z,27.60
2022-11-29T22:26:13.336Z,34.92
2022-11-29T22:28:40.049Z,31.35
2022-11-29T22:31:09.214Z,36.60
2022-11-29T22:33:36.064Z,34.00
2022-11-29T22:36:04.057Z,28.95
2022-11-29T22:38:30.824Z,33.50
2022-11-29T22:41:09.649Z,32.40
2022-11-29T22:43:37.042Z,35.13
2022-11-29T22:46:08.862Z,28.17
2022-11-29T22:48:39.015Z,33.88
2022-11-29T22:51:13.916Z,40.63
2022-11-29T22:53:42.736Z,34.13
2022-11-29T22:56:11.337Z,34.13
2022-11-29T22:58:38.104Z,32.80
2022-11-29T23:01:07.053Z,32.97
2022-11-29T23:03:39.799Z,31.20
2022-11-29T23:06:10.994Z,29.08
2022-11-29T23:08:38.705Z,30.90
2022-11-29T23:11:06.682Z,34.65
2022-11-29T23:13:38.205Z,31.90
2022-11-29T23:16:07.825Z,35.22
2022-11-29T23:18:35.234Z,32.08
2022-11-29T23:21:11.562Z,31.23
2022-11-29T23:23:38.579Z,30.55
2022-11-29T23:26:06.799Z,37.53
2022-11-29T23:28:34.903Z,35.63
2022-11-29T23:31:02.108Z,34.60
2022-11-29T23:33:28.851Z,35.60
2022-11-29T23:36:04.048Z,29.45
2022-11-29T23:38:31.024Z,32.83
2022-11-29T23:40:57.718Z,36.05
2022-11-29T23:43:24.719Z,30.58
2022-11-29T23:45:51.425Z,33.50
2022-11-29T23:48:18.110Z,32.88
2022-11-29T23:50:44.910Z,37.33
2022-11-29T23:53:13.467Z,34.95
2022-11-29T23:55:40.503Z,31.17
2022-11-29T23:58:07.280Z,34.43
